createdAt,value
2018-09-21T00:00:55.356Z,5.43
2018-09-21T00:03:25.421Z,4.93
2018-09-21T00:05:56.102Z,5.50
2018-09-21T00:08:27.254Z,4.97
2018-09-21T00:10:56.880Z,4.90
2018-09-21T00:13:27.105Z,5.40
2018-09-21T00:15:57.156Z,5.83
2018-09-21T00:18:27.413Z,5.27
2018-09-21T00:20:57.075Z,5.07
2018-09-21T00:23:27.184Z,5.20
2018-09-21T00:25:56.861Z,6.10
2018-09-21T00:28:26.585Z,5.43
2018-09-21T00:30:56.321Z,5.77
2018-09-21T00:33:25.974Z,5.57
2018-09-21T00:35:55.598Z,5.23
2018-09-21T00:38:25.613Z,5.33
2018-09-21T00:40:55.258Z,5.27
2018-09-21T00:43:25.879Z,5.43
2018-09-21T00:45:56.430Z,5.37
2018-09-21T00:48:26.396Z,5.73
2018-09-21T00:50:56.445Z,6.10
2018-09-21T00:53:29.022Z,5.80
2018-09-21T00:55:59.261Z,5.83
2018-09-21T00:58:29.470Z,5.67
2018-09-21T01:00:59.138Z,6.07
2018-09-21T01:03:28.990Z,5.73
2018-09-21T01:05:58.654Z,5.83
2018-09-21T01:08:28.385Z,5.53
2018-09-21T01:10:59.292Z,6.27
2018-09-21T01:13:29.358Z,5.87
2018-09-21T01:15:59.009Z,5.83
2018-09-21T01:18:29.571Z,5.80
2018-09-21T01:20:59.712Z,5.67
2018-09-21T01:23:30.096Z,5.33
2018-09-21T01:25:59.883Z,6.10
2018-09-21T01:28:29.637Z,5.97
2018-09-21T01:30:59.786Z,6.07
2018-09-21T01:33:30.420Z,5.60
2018-09-21T01:36:00.316Z,5.20
2018-09-21T01:38:30.849Z,5.70
2018-09-21T01:41:00.525Z,5.87
2018-09-21T01:43:31.283Z,5.73
2018-09-21T01:46:02.337Z,5.63
2018-09-21T01:48:31.950Z,5.57
2018-09-21T01:51:01.586Z,5.33
2018-09-21T01:53:31.270Z,5.63
2018-09-21T01:56:00.973Z,5.03
2018-09-21T01:58:30.644Z,6.70
2018-09-21T02:01:00.825Z,5.37
2018-09-21T02:03:30.499Z,6.03
2018-09-21T02:06:00.130Z,5.87
2018-09-21T02:08:29.833Z,5.83
2018-09-21T02:10:59.921Z,5.93
2018-09-21T02:13:29.726Z,6.03
2018-09-21T02:15:59.425Z,5.30
2018-09-21T02:18:29.842Z,5.53
2018-09-21T02:20:59.546Z,5.53
2018-09-21T02:23:29.239Z,5.60
2018-09-21T02:26:00.695Z,5.67
2018-09-21T02:28:31.482Z,5.20
2018-09-21T02:31:01.142Z,6.00
2018-09-21T02:33:31.412Z,6.17
2018-09-21T02:36:01.087Z,5.50
2018-09-21T02:38:30.746Z,5.43
2018-09-21T02:41:00.402Z,6.30
2018-09-21T02:43:30.541Z,6.00
2018-09-21T02:46:00.250Z,6.10
2018-09-21T02:48:30.857Z,6.13
2018-09-21T02:51:00.922Z,6.43
2018-09-21T02:53:31.109Z,6.07
2018-09-21T02:56:01.232Z,6.60
2018-09-21T02:58:32.019Z,5.73
2018-09-21T03:01:02.101Z,5.40
2018-09-21T03:03:31.700Z,5.90
2018-09-21T03:06:01.412Z,6.40
2018-09-21T03:08:31.060Z,6.30
2018-09-21T03:11:01.062Z,6.90
2018-09-21T03:13:30.742Z,7.40
2018-09-21T03:16:00.399Z,7.07
2018-09-21T03:18:30.099Z,7.10
2018-09-21T03:20:59.770Z,6.50
2018-09-21T03:23:29.452Z,6.90
2018-09-21T03:25:59.449Z,7.80
2018-09-21T03:28:29.894Z,7.10
2018-09-21T03:30:59.608Z,7.63
2018-09-21T03:33:29.263Z,6.67
2018-09-21T03:35:58.922Z,6.17
2018-09-21T03:38:29.137Z,6.20
2018-09-21T03:40:58.826Z,7.07
2018-09-21T03:43:28.870Z,6.60
2018-09-21T03:45:58.511Z,6.60
2018-09-21T03:48:28.197Z,6.70
2018-09-21T03:50:57.845Z,7.00
2018-09-21T03:53:28.142Z,6.20
2018-09-21T03:55:57.826Z,6.97
2018-09-21T03:58:29.079Z,6.73
2018-09-21T04:00:58.753Z,6.00
2018-09-21T04:03:28.525Z,6.87
2018-09-21T04:05:58.137Z,6.87
2018-09-21T04:08:27.827Z,6.83
2018-09-21T04:10:57.497Z,6.40
2018-09-21T04:13:29.953Z,6.50
2018-09-21T04:15:59.866Z,6.17
2018-09-21T04:18:29.582Z,5.93
2018-09-21T04:20:59.249Z,6.80
2018-09-21T04:23:29.990Z,6.40
2018-09-21T04:26:00.325Z,6.17
2018-09-21T04:28:31.243Z,6.40
2018-09-21T04:31:00.911Z,6.43
2018-09-21T04:33:30.550Z,6.07
2018-09-21T04:36:00.204Z,6.10
2018-09-21T04:38:30.456Z,7.20
2018-09-21T04:41:00.112Z,6.27
2018-09-21T04:43:30.121Z,6.43
2018-09-21T04:46:00.406Z,6.30
2018-09-21T04:48:30.894Z,6.80
2018-09-21T04:51:00.550Z,6.47
2018-09-21T04:53:30.210Z,6.43
2018-09-21T04:56:00.573Z,6.07
2018-09-21T04:58:33.664Z,5.93
2018-09-21T05:01:03.301Z,6.27
2018-09-21T05:03:35.962Z,6.10
2018-09-21T05:06:05.610Z,5.70
2018-09-21T05:08:35.237Z,5.47
2018-09-21T05:11:08.031Z,5.43
2018-09-21T05:13:39.057Z,6.23
2018-09-21T05:16:08.849Z,6.13
2018-09-21T05:18:39.448Z,5.83
2018-09-21T05:21:11.050Z,5.67
2018-09-21T05:23:40.944Z,6.43
2018-09-21T05:26:10.613Z,5.87
2018-09-21T05:28:43.518Z,6.23
2018-09-21T05:31:16.264Z,5.27
2018-09-21T05:33:45.950Z,5.90
2018-09-21T05:36:15.896Z,5.67
2018-09-21T05:38:46.526Z,5.80
2018-09-21T05:41:16.450Z,5.33
2018-09-21T05:43:46.263Z,4.73
2018-09-21T05:46:15.926Z,5.13
2018-09-21T05:48:45.596Z,5.33
2018-09-21T05:51:15.268Z,6.20
2018-09-21T05:53:45.191Z,5.37
2018-09-21T05:56:15.075Z,5.63
2018-09-21T05:58:45.064Z,5.53
2018-09-21T06:01:16.002Z,5.80
2018-09-21T06:03:46.415Z,5.97
2018-09-21T06:06:16.041Z,6.27
2018-09-21T06:08:45.673Z,6.13
2018-09-21T06:11:15.955Z,6.23
2018-09-21T06:13:46.164Z,6.30
2018-09-21T06:16:15.897Z,6.10
2018-09-21T06:18:45.677Z,7.23
2018-09-21T06:21:16.909Z,5.90
2018-09-21T06:23:48.421Z,5.60
2018-09-21T06:26:20.660Z,5.50
2018-09-21T06:28:50.330Z,5.67
2018-09-21T06:31:21.359Z,6.20
2018-09-21T06:33:51.462Z,5.50
2018-09-21T06:36:21.686Z,5.70
2018-09-21T06:38:51.597Z,5.90
2018-09-21T06:41:22.118Z,5.10
2018-09-21T06:43:52.322Z,5.70
2018-09-21T06:46:23.228Z,5.67
2018-09-21T06:48:52.877Z,5.37
2018-09-21T06:51:22.545Z,4.70
2018-09-21T06:53:52.231Z,4.80
2018-09-21T06:56:21.888Z,5.37
2018-09-21T06:58:52.713Z,4.83
2018-09-21T07:01:23.344Z,4.90
2018-09-21T07:03:53.055Z,4.90
2018-09-21T07:06:25.014Z,5.27
2018-09-21T07:08:54.873Z,4.87
2018-09-21T07:11:26.604Z,4.90
2018-09-21T07:13:58.647Z,4.80
2018-09-21T07:16:29.870Z,4.80
2018-09-21T07:19:01.238Z,4.63
2018-09-21T07:21:32.020Z,4.90
2018-09-21T07:24:01.756Z,5.00
2018-09-21T07:26:34.340Z,5.40
2018-09-21T07:29:05.548Z,4.40
2018-09-21T07:31:35.638Z,4.47
2018-09-21T07:34:05.947Z,4.63
2018-09-21T07:36:44.274Z,5.07
2018-09-21T07:39:17.985Z,5.20
2018-09-21T07:41:50.695Z,4.87
2018-09-21T07:44:27.984Z,4.90
2018-09-21T07:46:57.917Z,5.50
2018-09-21T07:49:27.636Z,5.07
2018-09-21T07:51:58.218Z,4.70
2018-09-21T07:54:29.021Z,5.20
2018-09-21T07:57:00.685Z,5.10
2018-09-21T07:59:32.646Z,4.90
2018-09-21T08:02:02.333Z,5.30
2018-09-21T08:04:35.481Z,4.90
2018-09-21T08:07:05.634Z,5.07
2018-09-21T08:09:37.002Z,5.70
2018-09-21T08:12:06.657Z,5.33
2018-09-21T08:14:36.905Z,4.83
2018-09-21T08:17:07.257Z,5.20
2018-09-21T08:19:42.289Z,4.67
2018-09-21T08:22:11.925Z,4.73
2018-09-21T08:24:44.045Z,4.90
2018-09-21T08:27:16.302Z,4.67
2018-09-21T08:29:48.638Z,5.30
2018-09-21T08:32:19.311Z,5.73
2018-09-21T08:34:49.061Z,5.03
2018-09-21T08:37:19.094Z,5.17
2018-09-21T08:39:51.865Z,5.57
2018-09-21T08:42:21.802Z,5.40
2018-09-21T08:44:55.500Z,5.17
2018-09-21T08:47:27.695Z,5.07
2018-09-21T08:49:57.372Z,5.27
2018-09-21T08:52:27.045Z,5.20
2018-09-21T08:54:57.296Z,5.47
2018-09-21T08:57:26.968Z,5.13
2018-09-21T08:59:57.134Z,5.03
2018-09-21T09:02:28.490Z,5.77
2018-09-21T09:05:00.541Z,5.80
2018-09-21T09:07:30.513Z,5.70
2018-09-21T09:10:00.164Z,4.80
2018-09-21T09:12:29.866Z,4.87
2018-09-21T09:15:04.511Z,5.37
2018-09-21T09:17:36.835Z,5.60
2018-09-21T09:20:09.389Z,5.40
2018-09-21T09:22:41.264Z,4.60
2018-09-21T09:25:17.208Z,5.73
2018-09-21T09:28:05.552Z,5.57
2018-09-21T09:30:36.590Z,5.43
2018-09-21T09:33:06.289Z,4.97
2018-09-21T09:35:41.839Z,5.23
2018-09-21T09:38:13.442Z,5.43
2018-09-21T09:40:43.205Z,4.77
2018-09-21T09:43:14.357Z,5.17
2018-09-21T09:45:48.210Z,5.20
2018-09-21T09:48:19.881Z,5.20
2018-09-21T09:50:50.593Z,5.30
2018-09-21T09:53:20.482Z,4.83
2018-09-21T09:55:51.311Z,4.90
2018-09-21T09:58:24.972Z,4.90
2018-09-21T10:00:58.319Z,4.97
2018-09-21T10:03:28.918Z,5.30
2018-09-21T10:05:58.670Z,5.37
2018-09-21T10:08:30.965Z,5.40
2018-09-21T10:11:01.058Z,5.00
2018-09-21T10:13:30.735Z,4.53
2018-09-21T10:16:02.325Z,5.30
2018-09-21T10:18:33.429Z,5.23
2018-09-21T10:21:03.987Z,5.00
2018-09-21T10:23:33.667Z,4.70
2018-09-21T10:26:04.422Z,4.77
2018-09-21T10:28:34.475Z,5.33
2018-09-21T10:31:04.367Z,4.90
2018-09-21T10:33:38.786Z,4.97
2018-09-21T10:36:11.562Z,5.37
2018-09-21T10:38:41.404Z,4.50
2018-09-21T10:41:13.669Z,4.50
2018-09-21T10:43:44.937Z,5.23
2018-09-21T10:46:16.394Z,4.57
2018-09-21T10:48:46.345Z,4.70
2018-09-21T10:51:16.122Z,4.63
2018-09-21T10:53:47.006Z,4.70
2018-09-21T10:56:17.937Z,4.53
2018-09-21T10:58:47.605Z,4.70
2018-09-21T11:01:18.364Z,4.40
2018-09-21T11:03:48.216Z,4.57
2018-09-21T11:06:18.388Z,4.53
2018-09-21T11:08:48.864Z,4.30
2018-09-21T11:11:21.985Z,4.80
2018-09-21T11:13:53.381Z,5.00
2018-09-21T11:16:23.069Z,4.67
2018-09-21T11:18:53.328Z,4.60
2018-09-21T11:21:25.291Z,4.97
2018-09-21T11:23:56.506Z,4.20
2018-09-21T11:26:26.526Z,4.87
2018-09-21T11:28:56.559Z,4.47
2018-09-21T11:31:27.559Z,4.40
2018-09-21T11:34:01.369Z,4.63
2018-09-21T11:36:32.143Z,4.67
2018-09-21T11:39:04.886Z,4.27
2018-09-21T11:41:34.550Z,3.83
2018-09-21T11:44:23.822Z,4.30
2018-09-21T11:46:56.689Z,4.50
2018-09-21T11:49:26.941Z,4.73
2018-09-21T11:51:58.562Z,4.37
2018-09-21T11:54:29.996Z,4.00
2018-09-21T11:57:01.659Z,4.60
2018-09-21T11:59:33.945Z,4.97
2018-09-21T12:02:05.857Z,4.30
2018-09-21T12:04:37.585Z,4.47
2018-09-21T12:07:07.246Z,4.43
2018-09-21T12:09:37.495Z,4.63
2018-09-21T12:12:09.850Z,4.77
2018-09-21T12:14:41.242Z,4.40
2018-09-21T12:17:13.125Z,4.60
2018-09-21T12:19:43.387Z,4.77
2018-09-21T12:22:14.919Z,4.80
2018-09-21T12:24:46.258Z,5.03
2018-09-21T12:27:22.129Z,4.90
2018-09-21T12:29:52.414Z,4.70
2018-09-21T12:32:24.486Z,4.60
2018-09-21T12:34:54.790Z,5.10
2018-09-21T12:37:26.125Z,4.80
2018-09-21T12:39:56.278Z,4.73
2018-09-21T12:45:07.290Z,4.90
2018-09-21T12:47:38.650Z,5.17
2018-09-21T12:50:08.650Z,4.80
2018-09-21T12:52:39.540Z,4.83
2018-09-21T12:55:10.076Z,4.83
2018-09-21T12:57:39.786Z,4.90
2018-09-21T13:00:11.447Z,5.20
2018-09-21T13:02:42.354Z,5.53
2018-09-21T13:05:12.337Z,6.10
2018-09-21T13:07:43.426Z,5.13
2018-09-21T13:10:14.446Z,4.73
2018-09-21T13:12:46.945Z,5.10
2018-09-21T13:15:17.481Z,4.90
2018-09-21T13:17:47.376Z,5.20
2018-09-21T13:20:17.288Z,5.00
2018-09-21T13:22:55.098Z,4.80
2018-09-21T13:25:24.717Z,5.20
2018-09-21T13:27:56.394Z,5.40
2018-09-21T13:30:35.391Z,4.73
2018-09-21T13:33:09.598Z,4.97
2018-09-21T13:35:40.221Z,5.67
2018-09-21T13:38:09.905Z,5.53
2018-09-21T13:40:39.546Z,5.43
2018-09-21T13:43:10.483Z,5.70
2018-09-21T13:45:43.997Z,5.00
2018-09-21T13:48:19.729Z,5.47
2018-09-21T13:50:49.399Z,4.87
2018-09-21T13:53:32.641Z,4.80
2018-09-21T13:56:09.077Z,4.87
2018-09-21T13:58:44.252Z,4.93
2018-09-21T14:01:28.396Z,5.13
2018-09-21T14:04:01.204Z,4.80
2018-09-21T14:06:41.122Z,4.63
2018-09-21T14:09:30.339Z,4.30
2018-09-21T14:12:10.433Z,4.70
2018-09-21T14:14:42.756Z,4.23
2018-09-21T14:17:24.811Z,4.60
2018-09-21T14:20:02.388Z,4.43
2018-09-21T14:27:04.567Z,4.10
2018-09-21T14:29:35.231Z,4.37
2018-09-21T14:32:05.761Z,4.30
2018-09-21T14:34:36.561Z,4.63
2018-09-21T14:37:06.744Z,4.33
2018-09-21T14:39:38.623Z,4.03
2018-09-21T14:42:10.184Z,3.70
2018-09-21T14:44:40.586Z,3.93
2018-09-21T14:47:12.452Z,3.70
2018-09-21T14:49:42.222Z,4.07
2018-09-21T14:52:13.639Z,3.90
2018-09-21T14:54:44.203Z,3.60
2018-09-21T14:57:13.965Z,4.00
2018-09-21T14:59:43.788Z,4.37
2018-09-21T15:02:15.498Z,3.80
2018-09-21T15:04:49.636Z,3.90
2018-09-21T15:07:20.302Z,3.90
2018-09-21T15:09:50.079Z,3.80
2018-09-21T15:12:20.991Z,4.53
2018-09-21T15:14:50.802Z,3.77
2018-09-21T15:17:36.619Z,3.53
2018-09-21T15:20:06.394Z,3.57
2018-09-21T15:22:36.994Z,3.57
2018-09-21T15:25:06.850Z,3.50
2018-09-21T15:27:38.613Z,3.20
2018-09-21T15:30:09.232Z,3.20
2018-09-21T15:32:42.057Z,2.73
2018-09-21T15:35:11.733Z,3.33
2018-09-21T15:37:43.410Z,3.00
2018-09-21T15:40:14.108Z,3.07
2018-09-21T15:42:45.652Z,2.93
2018-09-21T15:45:15.337Z,3.20
2018-09-21T15:47:46.321Z,3.10
2018-09-21T15:50:19.612Z,3.40
2018-09-21T15:52:49.849Z,3.23
2018-09-21T15:55:22.484Z,2.80
2018-09-21T15:57:54.026Z,3.23
2018-09-21T16:00:27.809Z,3.27
2018-09-21T16:03:00.574Z,3.07
2018-09-21T16:05:33.532Z,3.27
2018-09-21T16:08:03.554Z,3.40
2018-09-21T16:10:35.355Z,3.37
2018-09-21T16:13:14.869Z,3.63
2018-09-21T16:15:48.341Z,3.40
2018-09-21T16:18:20.212Z,3.07
2018-09-21T16:20:56.318Z,3.27
2018-09-21T16:23:28.630Z,3.60
2018-09-21T16:26:00.194Z,3.30
2018-09-21T16:28:32.398Z,2.90
2018-09-21T16:31:02.331Z,3.30
2018-09-21T16:33:32.146Z,3.00
2018-09-21T16:36:02.867Z,2.60
2018-09-21T16:38:32.525Z,2.80
2018-09-21T16:41:02.182Z,3.20
2018-09-21T16:43:39.931Z,2.93
2018-09-21T16:46:09.853Z,3.20
2018-09-21T16:48:40.467Z,3.17
2018-09-21T16:51:10.449Z,3.23
2018-09-21T16:53:43.216Z,3.10
2018-09-21T16:56:13.742Z,2.17
2018-09-21T16:58:45.581Z,2.00
2018-09-21T17:01:15.390Z,2.00
2018-09-21T17:03:47.294Z,1.67
2018-09-21T17:06:21.998Z,1.53
2018-09-21T17:08:55.756Z,1.70
2018-09-21T17:11:26.776Z,1.47
2018-09-21T17:13:58.364Z,1.40
2018-09-21T17:16:28.863Z,1.37
2018-09-21T17:19:00.270Z,1.30
2018-09-21T17:21:30.315Z,1.63
2018-09-21T17:24:01.986Z,1.50
2018-09-21T17:26:33.475Z,1.40
2018-09-21T17:29:04.343Z,1.70
2018-09-21T17:31:37.750Z,1.80
2018-09-21T17:34:13.411Z,1.87
2018-09-21T17:36:46.717Z,1.30
2018-09-21T17:39:18.782Z,2.00
2018-09-21T17:41:50.550Z,1.63
2018-09-21T17:44:27.371Z,1.73
2018-09-21T17:46:57.670Z,1.60
2018-09-21T17:49:28.350Z,1.60
2018-09-21T17:51:58.440Z,2.10
2018-09-21T17:54:28.109Z,1.80
2018-09-21T17:56:58.546Z,1.70
2018-09-21T17:59:30.712Z,1.90
2018-09-21T18:02:01.473Z,1.80
2018-09-21T18:04:31.288Z,2.20
2018-09-21T18:07:02.519Z,1.83
2018-09-21T18:09:32.925Z,2.00
2018-09-21T18:12:04.595Z,1.90
2018-09-21T18:14:35.359Z,1.80
2018-09-21T18:17:06.372Z,1.77
2018-09-21T18:19:37.368Z,1.60
2018-09-21T18:22:07.638Z,2.07
2018-09-21T18:24:38.199Z,2.23
2018-09-21T18:27:09.329Z,2.33
2018-09-21T18:29:40.669Z,1.93
2018-09-21T18:32:12.376Z,1.90
2018-09-21T18:34:44.576Z,1.80
2018-09-21T18:37:16.424Z,2.33
2018-09-21T18:39:46.816Z,1.70
2018-09-21T18:42:16.680Z,2.00
2018-09-21T18:44:49.766Z,1.83
2018-09-21T18:47:20.278Z,2.17
2018-09-21T18:49:53.562Z,1.57
2018-09-21T18:52:24.447Z,1.80
2018-09-21T18:54:54.990Z,1.73
2018-09-21T18:57:25.474Z,1.87
2018-09-21T18:59:56.393Z,1.80
2018-09-21T19:02:27.871Z,1.70
2018-09-21T19:04:59.374Z,1.70
2018-09-21T19:07:32.297Z,2.13
2018-09-21T19:10:02.671Z,2.13
2018-09-21T19:12:33.272Z,1.70
2018-09-21T19:15:05.997Z,2.43
2018-09-21T19:17:37.578Z,2.50
2018-09-21T19:20:12.819Z,1.97
2018-09-21T19:22:48.318Z,2.13
2018-09-21T19:25:21.238Z,2.20
2018-09-21T19:27:53.269Z,2.60
2018-09-21T19:30:25.485Z,2.40
2018-09-21T19:32:55.534Z,1.90
2018-09-21T19:35:28.850Z,2.00
2018-09-21T19:38:00.233Z,2.40
2018-09-21T19:40:31.898Z,1.90
2018-09-21T19:43:04.713Z,2.30
2018-09-21T19:45:38.328Z,2.00
2018-09-21T19:48:12.331Z,1.80
2018-09-21T19:50:43.038Z,1.90
2018-09-21T19:53:15.470Z,1.93
2018-09-21T19:55:46.856Z,2.37
2018-09-21T19:58:18.056Z,2.37
2018-09-21T20:00:49.345Z,2.47
2018-09-21T20:03:22.753Z,2.20
2018-09-21T20:08:35.972Z,2.40
2018-09-21T20:11:06.475Z,2.60
2018-09-21T20:13:39.145Z,2.53
2018-09-21T20:16:09.978Z,3.20
2018-09-21T20:18:43.145Z,3.30
2018-09-21T20:21:15.710Z,2.83
2018-09-21T20:23:49.040Z,3.00
2018-09-21T20:26:20.272Z,2.77
2018-09-21T20:28:50.441Z,2.60
2018-09-21T20:31:26.738Z,2.80
2018-09-21T20:33:58.955Z,2.70
2018-09-21T20:36:31.307Z,3.10
2018-09-21T20:39:02.488Z,3.00
2018-09-21T20:41:33.405Z,2.57
2018-09-21T20:44:04.420Z,2.50
2018-09-21T20:46:35.917Z,2.73
2018-09-21T20:49:08.480Z,2.40
2018-09-21T20:51:40.941Z,2.50
2018-09-21T20:54:12.533Z,2.80
2018-09-21T20:56:45.192Z,2.30
2018-09-21T20:59:15.384Z,2.80
2018-09-21T21:01:51.987Z,2.27
2018-09-21T21:04:22.749Z,2.43
2018-09-21T21:06:53.545Z,2.50
2018-09-21T21:09:23.443Z,2.83
2018-09-21T21:11:54.694Z,2.67
2018-09-21T21:14:29.657Z,2.77
2018-09-21T21:17:00.397Z,2.60
2018-09-21T21:19:32.090Z,2.37
2018-09-21T21:22:02.329Z,2.30
2018-09-21T21:24:34.734Z,2.10
2018-09-21T21:27:06.850Z,2.60
2018-09-21T21:29:36.502Z,2.27
2018-09-21T21:32:06.162Z,2.40
2018-09-21T21:34:36.404Z,2.20
2018-09-21T21:37:08.160Z,2.10
2018-09-21T21:39:39.321Z,2.00
2018-09-21T21:42:09.848Z,2.40
2018-09-21T21:44:39.937Z,2.37
2018-09-21T21:47:11.411Z,2.10
2018-09-21T21:49:42.505Z,2.50
2018-09-21T21:52:15.332Z,2.47
2018-09-21T21:54:46.022Z,2.07
2018-09-21T21:57:19.410Z,2.37
2018-09-21T21:59:50.759Z,2.40
2018-09-21T22:02:21.523Z,2.20
2018-09-21T22:04:51.153Z,1.70
2018-09-21T22:07:20.795Z,1.90
2018-09-21T22:09:50.454Z,1.80
2018-09-21T22:14:26.559Z,1.80
2018-09-21T22:16:58.218Z,1.97
2018-09-21T22:19:28.986Z,1.70
2018-09-21T22:21:59.774Z,2.00
2018-09-21T22:24:29.393Z,2.20
2018-09-21T22:26:59.277Z,2.00
2018-09-21T22:29:29.757Z,1.73
2018-09-21T22:31:59.490Z,2.10
2018-09-21T22:34:29.986Z,1.90
2018-09-21T22:37:00.833Z,1.50
2018-09-21T22:39:30.489Z,1.90
2018-09-21T22:42:00.204Z,2.00
2018-09-21T22:44:31.484Z,1.97
2018-09-21T22:47:01.802Z,1.80
2018-09-21T22:49:31.933Z,1.77
2018-09-21T22:52:01.570Z,1.83
2018-09-21T22:54:31.255Z,1.73
2018-09-21T22:57:02.624Z,1.80
2018-09-21T22:59:32.277Z,1.83
2018-09-21T23:02:02.508Z,1.83
2018-09-21T23:04:32.610Z,1.77
2018-09-21T23:07:03.881Z,1.70
2018-09-21T23:09:33.498Z,1.90
2018-09-21T23:12:03.657Z,1.80
2018-09-21T23:14:35.834Z,1.60
2018-09-21T23:17:06.099Z,1.60
2018-09-21T23:19:36.248Z,1.57
2018-09-21T23:22:06.391Z,1.93
2018-09-21T23:24:37.380Z,1.50
2018-09-21T23:27:07.035Z,1.40
2018-09-21T23:29:37.009Z,1.43
2018-09-21T23:32:06.289Z,1.70
2018-09-21T23:34:36.245Z,1.70
2018-09-21T23:37:07.959Z,1.80
2018-09-21T23:39:37.629Z,1.90
2018-09-21T23:42:07.279Z,2.53
2018-09-21T23:44:37.427Z,1.73
2018-09-21T23:47:07.107Z,1.90
2018-09-21T23:49:36.801Z,1.97
2018-09-21T23:52:07.038Z,1.77
2018-09-21T23:54:36.657Z,2.23
2018-09-21T23:57:06.275Z,2.00
2018-09-21T23:59:36.282Z,2.47
